Time;durP1;ratioP1;P1;durP2;ratioP2;P2;SDS_P1;SDS_P2;PMS_P1;PMS_P2;Temp;Humidity;BMP_temperature;BMP_pressure;BME280_temperature;BME280_humidity;BME280_pressure;Samples;Min_cycle;Max_cycle;Signal;HPM_P1;HPM_P2
2023/10/29 00:00:35;;;;;;;3.35;0.60;;;;;;;;;;5038518;28;20099;-50
2023/10/29 00:03:02;;;;;;;1.80;0.80;;;;;;;;;;5035080;28;20131;-51
2023/10/29 00:05:28;;;;;;;4.00;0.75;;;;;;;;;;5043553;28;20403;-51
2023/10/29 00:07:55;;;;;;;1.13;0.40;;;;;;;;;;5041093;28;20804;-51
2023/10/29 00:10:21;;;;;;;3.53;0.57;;;;;;;;;;5037493;28;20049;-53
2023/10/29 00:12:48;;;;;;;2.60;0.60;;;;;;;;;;5021044;28;20121;-51
2023/10/29 00:15:14;;;;;;;0.68;0.32;;;;;;;;;;5035100;28;20719;-51
2023/10/29 00:17:40;;;;;;;3.90;0.70;;;;;;;;;;5044704;28;20037;-50
2023/10/29 00:20:07;;;;;;;1.23;0.40;;;;;;;;;;5037239;28;20055;-50
2023/10/29 00:22:33;;;;;;;3.58;0.88;;;;;;;;;;5035302;28;20530;-50
2023/10/29 00:25:00;;;;;;;3.35;0.60;;;;;;;;;;5040440;28;20135;-50
2023/10/29 00:27:26;;;;;;;3.28;0.50;;;;;;;;;;5044358;28;20115;-48
2023/10/29 00:29:53;;;;;;;1.45;0.52;;;;;;;;;;5042592;28;20132;-49
2023/10/29 00:32:19;;;;;;;2.40;0.50;;;;;;;;;;5042584;28;20053;-50
2023/10/29 00:34:46;;;;;;;0.43;0.30;;;;;;;;;;5042558;28;20053;-52
2023/10/29 00:37:14;;;;;;;0.60;0.43;;;;;;;;;;5034792;28;20049;-49
2023/10/29 00:39:40;;;;;;;3.15;0.73;;;;;;;;;;5041212;28;20052;-50
2023/10/29 00:42:09;;;;;;;4.68;0.60;;;;;;;;;;5041835;28;20049;-52
2023/10/29 00:44:35;;;;;;;2.28;0.40;;;;;;;;;;5041816;28;20048;-52
2023/10/29 00:47:02;;;;;;;2.22;0.40;;;;;;;;;;5043322;28;20455;-51
2023/10/29 00:49:28;;;;;;;1.85;0.55;;;;;;;;;;5038035;28;20049;-50
2023/10/29 00:51:55;;;;;;;1.95;0.55;;;;;;;;;;5043084;28;20128;-51
2023/10/29 00:54:22;;;;;;;2.80;0.57;;;;;;;;;;5039594;28;20056;-51
2023/10/29 00:56:48;;;;;;;2.80;0.60;;;;;;;;;;5039265;28;20115;-53
2023/10/29 00:59:15;;;;;;;2.72;0.50;;;;;;;;;;5040807;28;20460;-51
2023/10/29 01:01:41;;;;;;;1.92;0.52;;;;;;;;;;5042857;28;20132;-53
2023/10/29 01:04:08;;;;;;;3.42;0.63;;;;;;;;;;5034621;28;20143;-50
2023/10/29 01:06:39;;;;;;;3.10;1.20;;;;;;;;;;5035941;28;20087;-51
2023/10/29 01:09:06;;;;;;;2.85;0.65;;;;;;;;;;5037124;28;20480;-49
2023/10/29 01:11:33;;;;;;;2.28;0.60;;;;;;;;;;5045416;28;20072;-50
2023/10/29 01:14:03;;;;;;;2.75;0.63;;;;;;;;;;5043528;28;20793;-49
2023/10/29 01:16:29;;;;;;;3.13;0.90;;;;;;;;;;5044898;28;20052;-50
2023/10/29 01:18:56;;;;;;;4.50;0.45;;;;;;;;;;5034485;28;20049;-48
2023/10/29 01:21:24;;;;;;;0.60;0.40;;;;;;;;;;5042919;28;20076;-51
2023/10/29 01:23:50;;;;;;;1.42;0.45;;;;;;;;;;5034589;28;20561;-52
2023/10/29 01:26:17;;;;;;;1.80;0.50;;;;;;;;;;5039048;28;20063;-51
2023/10/29 01:28:44;;;;;;;2.03;0.38;;;;;;;;;;5041886;28;20056;-50
2023/10/29 01:31:10;;;;;;;3.13;0.55;;;;;;;;;;5038456;28;20152;-50
2023/10/29 01:33:37;;;;;;;0.55;0.30;;;;;;;;;;5038880;28;20056;-50
2023/10/29 01:36:04;;;;;;;1.00;0.50;;;;;;;;;;5042525;28;20081;-51
2023/10/29 01:38:32;;;;;;;2.38;0.55;;;;;;;;;;5041885;28;20049;-51
2023/10/29 01:40:59;;;;;;;1.73;0.40;;;;;;;;;;5039809;28;20411;-51
2023/10/29 01:43:26;;;;;;;2.33;0.45;;;;;;;;;;5036613;28;20087;-50
2023/10/29 01:45:52;;;;;;;1.88;0.30;;;;;;;;;;5042134;28;20152;-49
2023/10/29 01:48:21;;;;;;;2.42;0.45;;;;;;;;;;5042873;28;20052;-48
2023/10/29 01:50:50;;;;;;;0.88;0.28;;;;;;;;;;5040513;28;20072;-50
2023/10/29 01:53:16;;;;;;;4.72;0.55;;;;;;;;;;5041336;28;20049;-51
2023/10/29 01:55:43;;;;;;;0.90;0.50;;;;;;;;;;5040528;28;20487;-50
2023/10/29 01:58:09;;;;;;;1.35;0.57;;;;;;;;;;5037068;28;20134;-51
2023/10/29 02:00:36;;;;;;;1.85;0.50;;;;;;;;;;5020120;28;20041;-49
2023/10/29 02:03:02;;;;;;;0.82;0.30;;;;;;;;;;5043646;28;20467;-52
2023/10/29 02:05:29;;;;;;;1.70;0.30;;;;;;;;;;5040540;28;20135;-49
2023/10/29 02:07:55;;;;;;;2.65;0.40;;;;;;;;;;5041961;28;20143;-51
2023/10/29 02:10:21;;;;;;;0.32;0.13;;;;;;;;;;5040048;28;20053;-51
2023/10/29 02:12:48;;;;;;;1.90;0.40;;;;;;;;;;5041768;28;20081;-49
2023/10/29 02:15:14;;;;;;;3.45;0.65;;;;;;;;;;5038426;28;20110;-51
2023/10/29 02:17:41;;;;;;;2.03;0.20;;;;;;;;;;5029775;28;20589;-51
2023/10/29 02:20:09;;;;;;;2.38;0.20;;;;;;;;;;5037745;28;20087;-52
2023/10/29 02:22:35;;;;;;;5.03;0.22;;;;;;;;;;5041157;28;20061;-50
2023/10/29 02:25:02;;;;;;;1.98;0.17;;;;;;;;;;5040289;28;20085;-50
2023/10/29 02:27:28;;;;;;;2.95;0.40;;;;;;;;;;5048550;28;20049;-48
2023/10/29 02:29:55;;;;;;;1.60;0.17;;;;;;;;;;5042390;28;20055;-50
2023/10/29 02:32:22;;;;;;;3.17;0.30;;;;;;;;;;5039379;28;20076;-49
2023/10/29 02:34:48;;;;;;;0.65;0.20;;;;;;;;;;5046921;28;20429;-50
2023/10/29 02:37:15;;;;;;;1.45;0.20;;;;;;;;;;5029714;28;20044;-49
2023/10/29 02:39:41;;;;;;;1.45;0.32;;;;;;;;;;5040557;28;20073;-51
2023/10/29 02:42:09;;;;;;;1.98;0.15;;;;;;;;;;5035729;28;20082;-51
2023/10/29 02:44:35;;;;;;;4.15;0.40;;;;;;;;;;5042880;28;20055;-48
2023/10/29 02:47:02;;;;;;;3.03;0.20;;;;;;;;;;5036856;28;20052;-49
2023/10/29 02:49:28;;;;;;;1.40;0.28;;;;;;;;;;5037864;28;20136;-52
2023/10/29 02:51:54;;;;;;;4.13;0.40;;;;;;;;;;5029713;28;20081;-52
2023/10/29 02:54:21;;;;;;;1.73;0.40;;;;;;;;;;5038421;28;20463;-52
2023/10/29 02:56:47;;;;;;;0.57;0.20;;;;;;;;;;5033662;28;20479;-51
2023/10/29 02:59:14;;;;;;;0.93;0.20;;;;;;;;;;5045715;28;20719;-50
2023/10/29 03:01:40;;;;;;;1.60;0.30;;;;;;;;;;5039354;28;20057;-51
2023/10/29 03:04:07;;;;;;;2.42;0.25;;;;;;;;;;5042970;28;20049;-51
2023/10/29 03:06:35;;;;;;;3.78;0.73;;;;;;;;;;5044602;28;20045;-51
2023/10/29 03:09:02;;;;;;;3.90;0.20;;;;;;;;;;5035678;28;20053;-48
2023/10/29 03:11:28;;;;;;;3.58;0.50;;;;;;;;;;5036421;28;20068;-53
2023/10/29 03:13:55;;;;;;;1.48;0.15;;;;;;;;;;5043053;28;20069;-53
2023/10/29 03:16:21;;;;;;;3.03;0.20;;;;;;;;;;5044295;28;20535;-52
2023/10/29 03:18:48;;;;;;;1.40;0.17;;;;;;;;;;5044286;28;20056;-52
2023/10/29 03:21:15;;;;;;;0.30;0.20;;;;;;;;;;5038604;28;20213;-53
2023/10/29 03:23:42;;;;;;;0.25;0.13;;;;;;;;;;5036190;28;20118;-50
2023/10/29 03:26:09;;;;;;;0.55;0.25;;;;;;;;;;5038017;28;20052;-53
2023/10/29 03:28:37;;;;;;;0.43;0.20;;;;;;;;;;5042272;28;20049;-54
2023/10/29 03:31:09;;;;;;;0.88;0.30;;;;;;;;;;5045374;28;20467;-52
2023/10/29 03:33:35;;;;;;;2.13;0.50;;;;;;;;;;5042144;28;20442;-52
2023/10/29 03:36:04;;;;;;;3.55;0.30;;;;;;;;;;5039768;28;20099;-50
2023/10/29 03:38:30;;;;;;;1.15;0.45;;;;;;;;;;5036558;28;20064;-49
2023/10/29 03:40:57;;;;;;;3.10;0.30;;;;;;;;;;5035974;28;20466;-52
2023/10/29 03:43:23;;;;;;;3.75;0.30;;;;;;;;;;5039744;28;20120;-52
2023/10/29 03:45:50;;;;;;;4.57;0.38;;;;;;;;;;5040363;28;20163;-50
2023/10/29 03:48:16;;;;;;;0.57;0.25;;;;;;;;;;5042168;28;20059;-52
2023/10/29 03:50:43;;;;;;;2.72;0.52;;;;;;;;;;5043711;28;20640;-53
2023/10/29 03:53:09;;;;;;;6.65;0.40;;;;;;;;;;5041006;28;20608;-52
2023/10/29 03:55:36;;;;;;;4.72;0.43;;;;;;;;;;5041085;28;20049;-53
2023/10/29 03:58:03;;;;;;;2.85;0.60;;;;;;;;;;5041173;28;20455;-52
2023/10/29 04:00:29;;;;;;;4.53;0.50;;;;;;;;;;5034639;28;20041;-53
2023/10/29 04:02:55;;;;;;;2.13;0.35;;;;;;;;;;5039603;28;20049;-53
2023/10/29 04:05:22;;;;;;;1.75;0.45;;;;;;;;;;5046809;28;20461;-52
2023/10/29 04:07:48;;;;;;;1.95;0.55;;;;;;;;;;5039419;28;20665;-53
2023/10/29 04:10:15;;;;;;;3.28;0.40;;;;;;;;;;5025883;28;20049;-51
2023/10/29 04:12:41;;;;;;;1.30;0.15;;;;;;;;;;5041443;28;20069;-50
2023/10/29 04:15:08;;;;;;;0.30;0.10;;;;;;;;;;5041964;28;20820;-54
2023/10/29 04:17:35;;;;;;;1.98;0.82;;;;;;;;;;5040983;28;20055;-52
2023/10/29 04:20:02;;;;;;;2.55;0.45;;;;;;;;;;5037433;28;20132;-52
2023/10/29 04:22:28;;;;;;;0.80;0.25;;;;;;;;;;5036522;28;20049;-52
2023/10/29 04:24:54;;;;;;;1.15;0.30;;;;;;;;;;5040102;28;20136;-53
2023/10/29 04:27:21;;;;;;;2.38;0.35;;;;;;;;;;5046079;28;20580;-50
2023/10/29 04:29:47;;;;;;;3.05;0.50;;;;;;;;;;5041277;28;20399;-52
2023/10/29 04:32:14;;;;;;;2.92;0.52;;;;;;;;;;5052402;28;20379;-52
2023/10/29 04:34:40;;;;;;;4.47;0.45;;;;;;;;;;5048734;28;20055;-49
2023/10/29 04:37:07;;;;;;;2.08;0.30;;;;;;;;;;5042478;28;20687;-52
2023/10/29 04:39:33;;;;;;;1.38;0.20;;;;;;;;;;5037693;28;20206;-51
2023/10/29 04:42:01;;;;;;;2.15;0.30;;;;;;;;;;5043457;28;20080;-51
2023/10/29 04:44:27;;;;;;;2.78;0.30;;;;;;;;;;5040013;28;20518;-51
2023/10/29 04:46:54;;;;;;;3.22;0.45;;;;;;;;;;5037246;28;20177;-52
2023/10/29 04:49:21;;;;;;;3.15;0.40;;;;;;;;;;5041584;28;20128;-49
2023/10/29 04:51:48;;;;;;;3.33;0.50;;;;;;;;;;5044315;28;20136;-58
2023/10/29 04:54:14;;;;;;;4.15;0.90;;;;;;;;;;5035131;28;20153;-52
2023/10/29 04:56:40;;;;;;;2.78;0.55;;;;;;;;;;5037662;28;20719;-52
2023/10/29 04:59:07;;;;;;;3.15;0.40;;;;;;;;;;5039116;28;20073;-53
2023/10/29 05:01:33;;;;;;;2.75;0.43;;;;;;;;;;5037844;28;20084;-53
2023/10/29 05:04:00;;;;;;;2.30;0.47;;;;;;;;;;5036320;28;20916;-52
2023/10/29 05:06:26;;;;;;;5.25;0.40;;;;;;;;;;5042021;28;20775;-52
2023/10/29 05:08:53;;;;;;;4.22;0.93;;;;;;;;;;5043710;28;20079;-51
2023/10/29 05:11:20;;;;;;;4.93;0.85;;;;;;;;;;5041537;28;20122;-51
2023/10/29 05:13:46;;;;;;;6.45;0.73;;;;;;;;;;5036787;28;20479;-50
2023/10/29 05:16:13;;;;;;;2.80;0.50;;;;;;;;;;5038832;28;20148;-53
2023/10/29 05:18:40;;;;;;;3.75;0.60;;;;;;;;;;5036250;28;20076;-52
2023/10/29 05:21:07;;;;;;;3.45;0.70;;;;;;;;;;5049398;28;20131;-52
2023/10/29 05:23:34;;;;;;;3.10;0.50;;;;;;;;;;5036587;28;20045;-51
2023/10/29 05:26:00;;;;;;;3.38;0.70;;;;;;;;;;5040375;28;20055;-49
2023/10/29 05:28:27;;;;;;;1.98;0.35;;;;;;;;;;5041569;28;20049;-53
2023/10/29 05:30:53;;;;;;;1.15;0.15;;;;;;;;;;5040754;28;20144;-51
2023/10/29 05:33:20;;;;;;;3.88;0.50;;;;;;;;;;5040655;28;20574;-50
2023/10/29 05:35:47;;;;;;;4.93;0.68;;;;;;;;;;5041061;28;20494;-53
2023/10/29 05:38:14;;;;;;;4.80;0.70;;;;;;;;;;5040584;28;20052;-53
2023/10/29 05:40:41;;;;;;;4.47;0.57;;;;;;;;;;5033434;28;20057;-50
2023/10/29 05:43:07;;;;;;;3.35;0.63;;;;;;;;;;5039059;28;20045;-53
2023/10/29 05:45:33;;;;;;;5.43;0.60;;;;;;;;;;5034832;28;21729;-51
2023/10/29 05:48:00;;;;;;;5.40;0.57;;;;;;;;;;5042545;28;20175;-50
2023/10/29 05:50:26;;;;;;;6.50;0.90;;;;;;;;;;5021216;28;20080;-50
2023/10/29 05:52:53;;;;;;;2.20;0.40;;;;;;;;;;5037049;28;20705;-52
2023/10/29 05:55:22;;;;;;;4.82;0.70;;;;;;;;;;5039143;28;20134;-52
2023/10/29 05:57:49;;;;;;;2.83;0.45;;;;;;;;;;5038425;28;20041;-51
2023/10/29 06:00:15;;;;;;;5.00;1.00;;;;;;;;;;5031348;28;20053;-51
2023/10/29 06:02:42;;;;;;;5.18;0.55;;;;;;;;;;5032043;28;20085;-53
2023/10/29 06:05:08;;;;;;;6.22;0.50;;;;;;;;;;5028830;28;20045;-51
2023/10/29 06:07:37;;;;;;;4.38;0.50;;;;;;;;;;5033094;28;20059;-49
2023/10/29 06:10:03;;;;;;;6.80;0.77;;;;;;;;;;5033066;28;20076;-53
2023/10/29 06:12:30;;;;;;;3.22;0.65;;;;;;;;;;5034251;28;20135;-49
2023/10/29 06:14:56;;;;;;;5.13;0.80;;;;;;;;;;5036041;28;20050;-52
2023/10/29 06:17:24;;;;;;;6.40;0.90;;;;;;;;;;5036300;28;20125;-53
2023/10/29 06:19:52;;;;;;;6.22;0.60;;;;;;;;;;5036999;28;20056;-51
2023/10/29 06:22:19;;;;;;;2.42;0.63;;;;;;;;;;5032243;28;20068;-51
2023/10/29 06:24:45;;;;;;;6.20;1.00;;;;;;;;;;5031701;28;20045;-48
2023/10/29 06:27:12;;;;;;;7.80;0.88;;;;;;;;;;5045019;28;20108;-52
2023/10/29 06:29:38;;;;;;;5.55;0.95;;;;;;;;;;5037282;28;20124;-53
2023/10/29 06:32:05;;;;;;;5.00;0.70;;;;;;;;;;5039823;28;20127;-52
2023/10/29 06:34:31;;;;;;;3.78;0.65;;;;;;;;;;5021103;28;20099;-51
2023/10/29 06:36:58;;;;;;;4.63;0.60;;;;;;;;;;5038914;28;20044;-51
2023/10/29 06:39:24;;;;;;;6.13;0.82;;;;;;;;;;5037991;28;20045;-51
2023/10/29 06:41:52;;;;;;;5.75;0.93;;;;;;;;;;5036165;28;20447;-52
2023/10/29 06:44:18;;;;;;;3.90;0.65;;;;;;;;;;5035293;28;20076;-53
2023/10/29 06:46:45;;;;;;;2.53;0.50;;;;;;;;;;5036118;28;20735;-52
2023/10/29 06:49:12;;;;;;;6.72;0.82;;;;;;;;;;5038523;28;20068;-52
2023/10/29 06:51:38;;;;;;;8.88;1.27;;;;;;;;;;5040202;28;20045;-51
2023/10/29 06:54:05;;;;;;;4.15;0.47;;;;;;;;;;5033595;28;20369;-49
2023/10/29 06:56:32;;;;;;;1.90;0.50;;;;;;;;;;5037190;28;20654;-49
2023/10/29 06:58:58;;;;;;;4.13;0.90;;;;;;;;;;5040045;28;20045;-50
2023/10/29 07:01:24;;;;;;;3.58;0.77;;;;;;;;;;5033609;28;20854;-52
2023/10/29 07:03:51;;;;;;;7.38;0.70;;;;;;;;;;5040285;28;21231;-52
2023/10/29 07:06:17;;;;;;;6.88;0.60;;;;;;;;;;5040009;28;20098;-51
2023/10/29 07:08:47;;;;;;;7.20;1.35;;;;;;;;;;5046411;28;20049;-52
2023/10/29 07:11:14;;;;;;;4.82;0.40;;;;;;;;;;5040710;28;20057;-52
2023/10/29 07:13:41;;;;;;;4.22;0.60;;;;;;;;;;5039058;28;20099;-51
2023/10/29 07:16:08;;;;;;;6.15;0.70;;;;;;;;;;5039287;28;20050;-52
2023/10/29 07:18:36;;;;;;;2.53;0.57;;;;;;;;;;5038861;28;20076;-51
2023/10/29 07:21:03;;;;;;;4.22;0.47;;;;;;;;;;5035723;28;20052;-52
2023/10/29 07:23:29;;;;;;;5.22;1.00;;;;;;;;;;5040994;28;20557;-51
2023/10/29 07:25:56;;;;;;;2.65;0.90;;;;;;;;;;5033267;28;20831;-49
2023/10/29 07:28:22;;;;;;;3.10;0.52;;;;;;;;;;5039790;28;20092;-49
2023/10/29 07:30:49;;;;;;;5.00;0.63;;;;;;;;;;5038317;28;20052;-52
2023/10/29 07:33:15;;;;;;;6.38;0.80;;;;;;;;;;5044209;28;20426;-52
2023/10/29 07:35:42;;;;;;;4.63;0.85;;;;;;;;;;5046922;28;20229;-51
2023/10/29 07:38:09;;;;;;;4.45;0.70;;;;;;;;;;5035067;28;20040;-51
2023/10/29 07:40:38;;;;;;;4.13;0.68;;;;;;;;;;5038899;28;20097;-49
2023/10/29 07:43:05;;;;;;;1.40;0.30;;;;;;;;;;5037168;28;20063;-49
2023/10/29 07:45:31;;;;;;;5.68;0.60;;;;;;;;;;5040192;28;20138;-52
2023/10/29 07:47:58;;;;;;;1.85;0.70;;;;;;;;;;5040560;28;20148;-53
2023/10/29 07:50:25;;;;;;;3.42;0.80;;;;;;;;;;5041834;28;20139;-50
2023/10/29 07:52:51;;;;;;;4.85;0.50;;;;;;;;;;5031166;28;20045;-52
2023/10/29 07:55:19;;;;;;;5.70;0.45;;;;;;;;;;5041968;28;20096;-51
2023/10/29 07:57:45;;;;;;;1.98;0.40;;;;;;;;;;5043551;28;20052;-53
2023/10/29 08:00:15;;;;;;;4.95;0.50;;;;;;;;;;5032992;28;20725;-49
2023/10/29 08:02:42;;;;;;;2.08;0.43;;;;;;;;;;5020248;28;20522;-52
2023/10/29 08:05:10;;;;;;;4.22;0.60;;;;;;;;;;5035871;28;20454;-50
2023/10/29 08:07:37;;;;;;;3.70;0.50;;;;;;;;;;5045534;28;20391;-52
2023/10/29 08:10:04;;;;;;;4.18;0.50;;;;;;;;;;5043680;28;20135;-49
2023/10/29 08:12:31;;;;;;;4.95;0.80;;;;;;;;;;5036954;28;20045;-49
2023/10/29 08:14:57;;;;;;;1.70;0.22;;;;;;;;;;5042100;28;21290;-49
2023/10/29 08:17:24;;;;;;;3.05;0.70;;;;;;;;;;5038264;28;20042;-53
2023/10/29 08:19:52;;;;;;;3.55;0.70;;;;;;;;;;5042131;28;20072;-49
2023/10/29 08:22:19;;;;;;;2.45;0.52;;;;;;;;;;5045455;28;20049;-49
2023/10/29 08:24:45;;;;;;;3.67;0.63;;;;;;;;;;5036077;28;20553;-49
2023/10/29 08:27:12;;;;;;;2.70;0.40;;;;;;;;;;5036413;28;20630;-51
2023/10/29 08:29:43;;;;;;;4.22;0.85;;;;;;;;;;5020939;28;20042;-50
2023/10/29 08:32:09;;;;;;;8.55;0.70;;;;;;;;;;5038458;28;20694;-51
2023/10/29 08:34:36;;;;;;;4.80;0.50;;;;;;;;;;5041397;28;20078;-52
2023/10/29 08:37:02;;;;;;;5.47;0.77;;;;;;;;;;5041407;28;20126;-50
2023/10/29 08:39:29;;;;;;;4.53;0.60;;;;;;;;;;5041744;28;20096;-51
2023/10/29 08:41:56;;;;;;;6.60;0.60;;;;;;;;;;5033570;28;20048;-50
2023/10/29 08:44:22;;;;;;;4.32;0.60;;;;;;;;;;5036623;28;20048;-52
2023/10/29 08:46:49;;;;;;;3.20;0.50;;;;;;;;;;5038534;28;20563;-51
2023/10/29 08:49:16;;;;;;;3.28;0.73;;;;;;;;;;5021417;28;20144;-51
2023/10/29 08:51:42;;;;;;;3.05;0.60;;;;;;;;;;5038495;28;20503;-51
2023/10/29 08:54:09;;;;;;;3.55;0.68;;;;;;;;;;5040435;28;20052;-51
2023/10/29 08:56:35;;;;;;;6.47;0.70;;;;;;;;;;5035433;28;20049;-51
2023/10/29 08:59:04;;;;;;;2.28;0.60;;;;;;;;;;5038776;28;20057;-50
2023/10/29 09:01:31;;;;;;;4.95;0.52;;;;;;;;;;5044047;28;20051;-49
2023/10/29 09:03:57;;;;;;;6.93;0.95;;;;;;;;;;5036165;28;20173;-50
2023/10/29 09:06:24;;;;;;;5.93;0.73;;;;;;;;;;5043380;28;20425;-54
2023/10/29 09:08:51;;;;;;;4.03;0.77;;;;;;;;;;5039116;28;20061;-51
2023/10/29 09:11:18;;;;;;;5.68;0.98;;;;;;;;;;5036763;28;20061;-51
2023/10/29 09:13:44;;;;;;;4.45;0.95;;;;;;;;;;5039930;28;20052;-52
2023/10/29 09:16:11;;;;;;;2.65;0.60;;;;;;;;;;5044073;28;20045;-51
2023/10/29 09:18:38;;;;;;;4.38;0.77;;;;;;;;;;5040490;28;20049;-52
2023/10/29 09:21:04;;;;;;;4.70;0.75;;;;;;;;;;5041264;28;20099;-53
2023/10/29 09:23:32;;;;;;;4.13;0.73;;;;;;;;;;5040851;28;20123;-52
2023/10/29 09:25:59;;;;;;;5.68;0.70;;;;;;;;;;5046831;28;20045;-52
2023/10/29 09:28:26;;;;;;;4.07;0.98;;;;;;;;;;5036418;28;20554;-52
2023/10/29 09:30:53;;;;;;;4.22;0.68;;;;;;;;;;5034989;28;20068;-52
2023/10/29 09:33:20;;;;;;;6.78;0.90;;;;;;;;;;5033689;28;20052;-53
2023/10/29 09:35:46;;;;;;;6.20;0.85;;;;;;;;;;5043006;28;20388;-49
2023/10/29 09:38:13;;;;;;;9.98;1.20;;;;;;;;;;5036611;28;20053;-49
2023/10/29 09:40:40;;;;;;;4.35;1.20;;;;;;;;;;5020163;28;20103;-53
2023/10/29 09:43:08;;;;;;;11.07;1.08;;;;;;;;;;5040766;28;20060;-50
2023/10/29 09:45:38;;;;;;;8.85;1.00;;;;;;;;;;5035594;28;20044;-53
2023/10/29 09:48:07;;;;;;;8.73;1.98;;;;;;;;;;5036542;28;20132;-51
2023/10/29 09:50:34;;;;;;;5.30;1.25;;;;;;;;;;5039178;28;20143;-52
2023/10/29 09:53:02;;;;;;;3.85;0.88;;;;;;;;;;5041846;28;20045;-51
2023/10/29 09:55:32;;;;;;;7.20;0.90;;;;;;;;;;5038400;28;20049;-51
2023/10/29 09:57:59;;;;;;;5.45;1.05;;;;;;;;;;5036446;28;20137;-49
2023/10/29 10:00:26;;;;;;;6.15;1.05;;;;;;;;;;5034733;28;20049;-51
2023/10/29 10:02:53;;;;;;;10.73;1.17;;;;;;;;;;5041645;28;20072;-53
2023/10/29 10:05:21;;;;;;;10.40;1.42;;;;;;;;;;5037298;28;20072;-52
2023/10/29 10:07:48;;;;;;;12.95;1.63;;;;;;;;;;5042051;28;20041;-52
2023/10/29 10:10:14;;;;;;;12.30;1.48;;;;;;;;;;5045162;28;20055;-50
2023/10/29 10:12:48;;;;;;;12.10;1.52;;;;;;;;;;5042458;28;20041;-50
2023/10/29 10:15:18;;;;;;;4.60;1.20;;;;;;;;;;5040064;28;20060;-49
2023/10/29 10:17:46;;;;;;;9.63;1.20;;;;;;;;;;5023892;28;20076;-53
2023/10/29 10:20:13;;;;;;;9.23;1.95;;;;;;;;;;5040420;28;20041;-51
2023/10/29 10:22:43;;;;;;;7.50;1.20;;;;;;;;;;5032747;28;20046;-51
2023/10/29 10:25:16;;;;;;;5.68;1.02;;;;;;;;;;5038444;28;20037;-51
2023/10/29 10:27:53;;;;;;;5.90;1.08;;;;;;;;;;5037885;28;20559;-48
2023/10/29 10:30:23;;;;;;;8.15;1.75;;;;;;;;;;5043114;28;20140;-50
2023/10/29 10:32:50;;;;;;;8.57;1.25;;;;;;;;;;5037444;28;20053;-52
2023/10/29 10:35:17;;;;;;;7.57;1.30;;;;;;;;;;5037871;28;20060;-49
2023/10/29 10:37:56;;;;;;;11.32;1.38;;;;;;;;;;5038229;28;20155;-54
2023/10/29 10:40:24;;;;;;;11.18;1.70;;;;;;;;;;5036404;28;21075;-52
2023/10/29 10:42:54;;;;;;;5.55;1.38;;;;;;;;;;5038331;28;20095;-51
2023/10/29 10:45:26;;;;;;;8.15;1.27;;;;;;;;;;5038126;28;20384;-53
2023/10/29 10:48:00;;;;;;;10.90;1.65;;;;;;;;;;5035004;28;20056;-50
2023/10/29 10:50:27;;;;;;;8.80;1.30;;;;;;;;;;5037452;28;20423;-49
2023/10/29 10:52:54;;;;;;;8.38;1.50;;;;;;;;;;5042994;28;20052;-52
2023/10/29 10:55:22;;;;;;;7.63;1.52;;;;;;;;;;5041631;28;20053;-51
2023/10/29 10:58:12;;;;;;;10.52;2.47;;;;;;;;;;5040643;28;20050;-51
2023/10/29 11:00:38;;;;;;;7.28;1.30;;;;;;;;;;5041420;28;20083;-49
2023/10/29 11:03:05;;;;;;;8.50;1.75;;;;;;;;;;5045052;28;20048;-50
2023/10/29 11:05:51;;;;;;;11.57;2.38;;;;;;;;;;5041281;28;20660;-53
2023/10/29 11:08:18;;;;;;;12.05;1.30;;;;;;;;;;5041362;28;20108;-51
2023/10/29 11:10:47;;;;;;;7.18;1.00;;;;;;;;;;5043908;28;20498;-52
2023/10/29 11:13:18;;;;;;;8.50;1.50;;;;;;;;;;5041270;28;20052;-52
2023/10/29 11:15:48;;;;;;;11.75;1.63;;;;;;;;;;5028377;28;20111;-51
2023/10/29 11:18:14;;;;;;;8.30;1.60;;;;;;;;;;5042933;28;20052;-54
2023/10/29 11:20:47;;;;;;;5.35;1.08;;;;;;;;;;5041788;28;20084;-53
2023/10/29 11:23:14;;;;;;;8.32;1.42;;;;;;;;;;5040087;28;20053;-51
2023/10/29 11:25:41;;;;;;;9.95;1.38;;;;;;;;;;5035413;28;20049;-51
2023/10/29 11:28:28;;;;;;;11.38;2.13;;;;;;;;;;5042313;28;20443;-54
2023/10/29 11:31:13;;;;;;;11.23;1.38;;;;;;;;;;5022006;28;20068;-50
2023/10/29 11:33:44;;;;;;;12.05;2.00;;;;;;;;;;5044255;28;20485;-52
2023/10/29 11:36:30;;;;;;;8.80;1.30;;;;;;;;;;5041444;28;20077;-54
2023/10/29 11:39:15;;;;;;;8.93;1.20;;;;;;;;;;5037751;28;20144;-52
2023/10/29 11:41:42;;;;;;;8.73;1.15;;;;;;;;;;5041153;28;20376;-53
2023/10/29 11:44:20;;;;;;;7.82;1.23;;;;;;;;;;5021935;28;20052;-51
2023/10/29 11:46:58;;;;;;;11.30;1.23;;;;;;;;;;5035861;28;20090;-53
2023/10/29 11:49:25;;;;;;;13.60;1.67;;;;;;;;;;5039527;28;20419;-52
2023/10/29 11:51:57;;;;;;;8.77;1.67;;;;;;;;;;5038629;28;20057;-54
2023/10/29 11:54:24;;;;;;;11.95;1.65;;;;;;;;;;5047889;28;20178;-51
2023/10/29 11:56:51;;;;;;;11.63;1.33;;;;;;;;;;5023037;28;20049;-53
2023/10/29 11:59:18;;;;;;;7.95;1.25;;;;;;;;;;5037290;28;20049;-51
2023/10/29 12:01:44;;;;;;;11.82;1.30;;;;;;;;;;5042505;28;20048;-52
2023/10/29 12:04:14;;;;;;;9.75;1.90;;;;;;;;;;5043242;28;20080;-52
2023/10/29 12:06:45;;;;;;;4.28;1.08;;;;;;;;;;5039663;28;20053;-48
2023/10/29 12:09:17;;;;;;;8.73;2.33;;;;;;;;;;5045752;28;20538;-49
2023/10/29 12:11:49;;;;;;;11.90;2.08;;;;;;;;;;5045124;28;20053;-51
2023/10/29 12:14:33;;;;;;;14.68;1.52;;;;;;;;;;5044948;28;20119;-52
2023/10/29 12:17:00;;;;;;;12.43;1.75;;;;;;;;;;5018944;28;20828;-51
2023/10/29 12:19:45;;;;;;;12.20;1.52;;;;;;;;;;5036705;28;20132;-50
2023/10/29 12:22:25;;;;;;;10.00;1.13;;;;;;;;;;5042021;28;20483;-50
2023/10/29 12:24:55;;;;;;;11.60;1.23;;;;;;;;;;5032235;28;20041;-51
2023/10/29 12:27:22;;;;;;;7.40;1.33;;;;;;;;;;5041016;28;20591;-53
2023/10/29 12:29:49;;;;;;;13.05;1.30;;;;;;;;;;5038978;28;20100;-51
2023/10/29 12:32:17;;;;;;;10.10;1.60;;;;;;;;;;5037294;28;20041;-52
2023/10/29 12:34:48;;;;;;;11.25;1.60;;;;;;;;;;5031928;28;20037;-49
2023/10/29 12:37:25;;;;;;;9.52;1.80;;;;;;;;;;5041916;28;20159;-52
2023/10/29 12:39:53;;;;;;;6.47;1.17;;;;;;;;;;5041691;28;20384;-51
2023/10/29 12:42:19;;;;;;;7.97;1.38;;;;;;;;;;5043441;28;20048;-53
2023/10/29 12:44:53;;;;;;;7.93;1.20;;;;;;;;;;5043051;28;20053;-49
2023/10/29 12:47:20;;;;;;;8.65;1.73;;;;;;;;;;5022121;28;20061;-51
2023/10/29 12:50:00;;;;;;;7.18;1.08;;;;;;;;;;5040034;28;20049;-49
2023/10/29 12:52:30;;;;;;;6.38;1.73;;;;;;;;;;5040690;28;20096;-50
2023/10/29 12:54:57;;;;;;;8.55;1.20;;;;;;;;;;5039788;28;20133;-49
2023/10/29 12:57:23;;;;;;;11.20;1.40;;;;;;;;;;5041007;28;20520;-52
2023/10/29 12:59:50;;;;;;;5.97;1.25;;;;;;;;;;5034064;28;20416;-52
2023/10/29 13:02:21;;;;;;;10.88;1.63;;;;;;;;;;5039022;28;20044;-52
2023/10/29 13:04:48;;;;;;;8.10;1.27;;;;;;;;;;5039945;28;20076;-49
2023/10/29 13:07:17;;;;;;;9.18;1.15;;;;;;;;;;5046332;28;20095;-51
2023/10/29 13:09:44;;;;;;;7.28;1.10;;;;;;;;;;5042335;28;20672;-52
2023/10/29 13:12:11;;;;;;;10.88;1.40;;;;;;;;;;5039170;28;20127;-52
2023/10/29 13:14:39;;;;;;;8.05;1.38;;;;;;;;;;5034559;28;20059;-51
2023/10/29 13:17:09;;;;;;;6.53;1.02;;;;;;;;;;5038082;28;20486;-49
2023/10/29 13:19:36;;;;;;;5.45;1.23;;;;;;;;;;5037250;28;20136;-51
2023/10/29 13:22:02;;;;;;;9.52;1.42;;;;;;;;;;5045025;28;20045;-51
2023/10/29 13:24:32;;;;;;;8.50;1.52;;;;;;;;;;5033812;28;20068;-51
2023/10/29 13:27:01;;;;;;;6.13;1.35;;;;;;;;;;5038787;28;20040;-52
2023/10/29 13:29:28;;;;;;;9.63;2.22;;;;;;;;;;5034977;28;20046;-52
2023/10/29 13:31:55;;;;;;;8.15;1.58;;;;;;;;;;5037049;28;20569;-52
2023/10/29 13:34:22;;;;;;;9.82;1.35;;;;;;;;;;5036695;28;20045;-53
2023/10/29 13:36:48;;;;;;;8.35;1.20;;;;;;;;;;5034863;28;20057;-52
2023/10/29 13:39:15;;;;;;;7.25;1.48;;;;;;;;;;5041646;28;20048;-51
2023/10/29 13:41:45;;;;;;;11.27;1.73;;;;;;;;;;5045810;28;20408;-48
2023/10/29 13:44:15;;;;;;;5.53;1.20;;;;;;;;;;5037545;28;20119;-52
2023/10/29 13:46:42;;;;;;;7.35;1.25;;;;;;;;;;5038870;28;20045;-52
2023/10/29 13:49:10;;;;;;;7.78;1.60;;;;;;;;;;5040069;28;20049;-51
2023/10/29 13:51:37;;;;;;;9.43;2.05;;;;;;;;;;5040345;28;20053;-50
2023/10/29 13:54:03;;;;;;;11.02;1.70;;;;;;;;;;5040086;28;20068;-52
2023/10/29 13:56:30;;;;;;;12.90;1.63;;;;;;;;;;5036149;28;20812;-49
2023/10/29 13:58:56;;;;;;;8.48;1.42;;;;;;;;;;5035663;28;20128;-49
2023/10/29 14:01:23;;;;;;;12.07;1.20;;;;;;;;;;5038768;28;20144;-50
2023/10/29 14:03:50;;;;;;;15.95;1.75;;;;;;;;;;5021405;28;20057;-52
2023/10/29 14:06:17;;;;;;;9.85;1.33;;;;;;;;;;5040692;28;20053;-57
2023/10/29 14:08:44;;;;;;;6.60;1.10;;;;;;;;;;5038495;28;20041;-50
2023/10/29 14:11:10;;;;;;;6.32;1.02;;;;;;;;;;5023389;28;20411;-51
2023/10/29 14:13:37;;;;;;;5.22;1.02;;;;;;;;;;5036884;28;20131;-51
2023/10/29 14:16:03;;;;;;;5.80;1.50;;;;;;;;;;5026119;28;20152;-51
2023/10/29 14:18:30;;;;;;;7.45;1.52;;;;;;;;;;5040460;28;20080;-50
2023/10/29 14:20:57;;;;;;;3.83;0.80;;;;;;;;;;5035630;28;20503;-49
2023/10/29 14:23:23;;;;;;;5.78;1.10;;;;;;;;;;5037433;28;20040;-50
2023/10/29 14:25:50;;;;;;;4.72;0.73;;;;;;;;;;5029759;28;20046;-49
2023/10/29 14:28:17;;;;;;;6.75;0.98;;;;;;;;;;5035981;28;20616;-50
2023/10/29 14:30:43;;;;;;;4.30;0.90;;;;;;;;;;5037831;28;20190;-51
2023/10/29 14:33:10;;;;;;;7.70;1.58;;;;;;;;;;5038652;28;20478;-52
2023/10/29 14:35:36;;;;;;;7.30;1.35;;;;;;;;;;5042814;28;20051;-48
2023/10/29 14:38:03;;;;;;;5.68;1.00;;;;;;;;;;5038519;28;20049;-48
2023/10/29 14:40:29;;;;;;;5.88;0.98;;;;;;;;;;5019510;28;20156;-51
2023/10/29 14:42:56;;;;;;;8.90;0.93;;;;;;;;;;5041164;28;20056;-51